createdAt,value
2023-11-06T00:00:56.331Z,9.20
2023-11-06T00:03:23.901Z,9.20
2023-11-06T00:05:53.627Z,9.20
2023-11-06T00:08:21.253Z,9.20
2023-11-06T00:10:49.461Z,9.20
2023-11-06T00:13:17.053Z,9.20
2023-11-06T00:15:44.670Z,9.20
2023-11-06T00:18:12.316Z,9.20
2023-11-06T00:20:39.884Z,9.20
2023-11-06T00:23:07.547Z,9.20
2023-11-06T00:25:35.036Z,9.10
2023-11-06T00:28:02.529Z,9.10
2023-11-06T00:30:30.105Z,9.10
2023-11-06T00:32:58.378Z,9.10
2023-11-06T00:35:26.563Z,9.10
2023-11-06T00:37:54.187Z,9.10
2023-11-06T00:40:21.720Z,9.10
2023-11-06T00:42:49.273Z,9.10
2023-11-06T00:45:16.880Z,9.00
2023-11-06T00:47:44.739Z,9.00
2023-11-06T00:50:12.640Z,9.00
2023-11-06T00:52:40.309Z,9.00
2023-11-06T00:55:08.473Z,9.00
2023-11-06T00:57:36.136Z,9.00
2023-11-06T01:00:05.873Z,9.00
2023-11-06T01:02:33.767Z,9.00
2023-11-06T01:05:02.602Z,9.00
2023-11-06T01:07:32.268Z,9.00
2023-11-06T01:09:59.832Z,9.00
2023-11-06T01:12:27.419Z,9.00
2023-11-06T01:14:55.015Z,9.10
2023-11-06T01:17:22.645Z,9.10
2023-11-06T01:19:50.238Z,9.10
2023-11-06T01:22:23.177Z,9.00
2023-11-06T01:24:56.313Z,9.00
2023-11-06T01:27:23.828Z,9.10
2023-11-06T01:29:51.346Z,9.10
2023-11-06T01:32:21.730Z,9.10
2023-11-06T01:34:49.351Z,9.10
2023-11-06T01:37:17.027Z,9.10
2023-11-06T01:39:45.420Z,9.10
2023-11-06T01:42:13.379Z,9.20
2023-11-06T01:44:41.101Z,9.20
2023-11-06T01:47:10.233Z,9.20
2023-11-06T01:49:38.772Z,9.30
2023-11-06T01:52:10.625Z,9.30
2023-11-06T01:54:39.303Z,9.30
2023-11-06T01:57:07.667Z,9.30
2023-11-06T01:59:35.263Z,9.30
2023-11-06T02:02:06.234Z,9.30
2023-11-06T02:04:33.992Z,9.40
2023-11-06T02:07:01.749Z,9.40
2023-11-06T02:09:29.595Z,9.40
2023-11-06T02:11:59.223Z,9.40
2023-11-06T02:14:26.793Z,9.40
2023-11-06T02:16:54.538Z,9.40
2023-11-06T02:19:22.553Z,9.40
2023-11-06T02:21:58.939Z,9.40
2023-11-06T02:24:27.238Z,9.40
2023-11-06T02:26:57.961Z,9.40
2023-11-06T02:29:25.557Z,9.40
2023-11-06T02:31:53.111Z,9.40
2023-11-06T02:34:23.932Z,9.40
2023-11-06T02:36:51.524Z,9.40
2023-11-06T02:39:19.179Z,9.30
2023-11-06T02:41:47.235Z,9.50
2023-11-06T02:44:15.015Z,9.50
2023-11-06T02:46:42.697Z,9.50
2023-11-06T02:49:10.228Z,9.40
2023-11-06T02:51:38.224Z,9.40
2023-11-06T02:54:08.386Z,9.50
2023-11-06T02:56:36.132Z,9.40
2023-11-06T02:59:08.603Z,9.40
2023-11-06T03:01:36.200Z,9.40
2023-11-06T03:04:03.943Z,9.50
2023-11-06T03:06:31.488Z,9.50
2023-11-06T03:08:59.785Z,9.50
2023-11-06T03:11:27.504Z,9.50
2023-11-06T03:13:55.424Z,9.50
2023-11-06T03:16:23.076Z,9.50
2023-11-06T03:18:50.616Z,9.60
2023-11-06T03:21:18.291Z,9.50
2023-11-06T03:23:45.795Z,9.50
2023-11-06T03:26:13.365Z,9.60
2023-11-06T03:28:41.070Z,9.60
2023-11-06T03:31:09.365Z,9.60
2023-11-06T03:33:38.007Z,9.60
2023-11-06T03:36:05.824Z,9.60
2023-11-06T03:38:33.346Z,9.50
2023-11-06T03:41:00.955Z,9.50
2023-11-06T03:43:29.085Z,9.50
2023-11-06T03:45:56.712Z,9.60
2023-11-06T03:48:24.295Z,9.60
2023-11-06T03:50:51.854Z,9.60
2023-11-06T03:53:19.762Z,9.60
2023-11-06T03:55:47.768Z,9.60
2023-11-06T03:58:15.303Z,9.60
2023-11-06T04:00:42.813Z,9.50
2023-11-06T04:03:10.640Z,9.50
2023-11-06T04:05:38.234Z,9.50
2023-11-06T04:08:05.986Z,9.50
2023-11-06T04:10:33.517Z,9.50
2023-11-06T04:13:01.169Z,9.40
2023-11-06T04:15:28.760Z,9.40
2023-11-06T04:17:56.348Z,9.40
2023-11-06T04:20:24.004Z,9.40
2023-11-06T04:22:51.684Z,9.40
2023-11-06T04:25:19.269Z,9.40
2023-11-06T04:27:46.940Z,9.40
2023-11-06T04:30:14.804Z,9.30
2023-11-06T04:32:42.535Z,9.30
2023-11-06T04:35:10.283Z,9.30
2023-11-06T04:37:43.834Z,9.20
2023-11-06T04:40:12.665Z,9.20
2023-11-06T04:42:41.714Z,9.20
2023-11-06T04:45:10.032Z,9.20
2023-11-06T04:47:37.621Z,9.20
2023-11-06T04:50:05.784Z,9.20
2023-11-06T04:52:33.543Z,9.20
2023-11-06T04:55:01.138Z,9.20
2023-11-06T04:57:28.744Z,9.30
2023-11-06T04:59:56.661Z,9.20
2023-11-06T05:02:27.494Z,9.20
2023-11-06T05:04:57.018Z,9.20
2023-11-06T05:07:25.120Z,9.20
2023-11-06T05:09:52.629Z,9.10
2023-11-06T05:12:20.128Z,9.10
2023-11-06T05:14:47.746Z,9.10
2023-11-06T05:17:15.404Z,9.20
2023-11-06T05:19:43.378Z,9.20
2023-11-06T05:22:15.136Z,9.20
2023-11-06T05:24:44.714Z,9.20
2023-11-06T05:27:12.406Z,9.10
2023-11-06T05:29:40.085Z,9.10
2023-11-06T05:32:08.860Z,9.10
2023-11-06T05:34:39.567Z,9.10
2023-11-06T05:37:07.729Z,9.10
2023-11-06T05:39:37.302Z,9.10
2023-11-06T05:42:05.442Z,9.10
2023-11-06T05:44:33.356Z,9.10
2023-11-06T05:47:01.064Z,9.10
2023-11-06T05:49:28.661Z,9.10
2023-11-06T05:51:56.552Z,9.10
2023-11-06T05:54:25.950Z,9.00
2023-11-06T05:56:55.577Z,9.00
2023-11-06T05:59:23.321Z,9.10
2023-11-06T06:01:50.916Z,9.10
2023-11-06T06:04:18.663Z,9.10
2023-11-06T06:06:46.172Z,9.10
2023-11-06T06:09:15.652Z,9.10
2023-11-06T06:11:44.894Z,9.10
2023-11-06T06:14:12.447Z,9.10
2023-11-06T06:16:39.972Z,9.10
2023-11-06T06:19:08.260Z,9.10
2023-11-06T06:21:35.868Z,9.00
2023-11-06T06:24:04.591Z,8.90
2023-11-06T06:26:32.176Z,8.80
2023-11-06T06:29:00.158Z,8.80
2023-11-06T06:31:28.664Z,8.80
2023-11-06T06:33:56.367Z,8.80
2023-11-06T06:36:25.005Z,8.70
2023-11-06T06:38:52.964Z,8.70
2023-11-06T06:41:20.582Z,8.70
2023-11-06T06:43:49.518Z,8.70
2023-11-06T06:46:17.495Z,8.70
2023-11-06T06:48:45.983Z,8.60
2023-11-06T06:51:13.614Z,8.60
2023-11-06T06:53:42.108Z,8.60
2023-11-06T06:56:09.965Z,8.60
2023-11-06T06:58:38.400Z,8.60
2023-11-06T07:01:08.541Z,8.60
2023-11-06T07:03:39.112Z,8.50
2023-11-06T07:06:11.894Z,8.50
2023-11-06T07:08:39.582Z,8.40
2023-11-06T07:11:07.222Z,8.50
2023-11-06T07:13:34.723Z,8.50
2023-11-06T07:16:02.313Z,8.50
2023-11-06T07:18:29.844Z,8.40
2023-11-06T07:20:57.357Z,8.40
2023-11-06T07:23:25.583Z,8.50
2023-11-06T07:25:53.119Z,8.40
2023-11-06T07:28:21.229Z,8.40
2023-11-06T07:30:48.695Z,8.40
2023-11-06T07:33:16.279Z,8.40
2023-11-06T07:35:44.698Z,8.40
2023-11-06T07:38:12.378Z,8.40
2023-11-06T07:40:40.513Z,8.40
2023-11-06T07:43:09.986Z,8.50
2023-11-06T07:45:38.204Z,8.50
2023-11-06T07:48:07.127Z,8.50
2023-11-06T07:50:35.039Z,8.50
2023-11-06T07:53:02.979Z,8.50
2023-11-06T07:55:30.822Z,8.50
2023-11-06T07:57:59.122Z,8.50
2023-11-06T08:00:39.456Z,8.50
2023-11-06T08:03:11.219Z,8.40
2023-11-06T08:05:39.872Z,8.50
2023-11-06T08:08:07.530Z,8.50
2023-11-06T08:10:36.877Z,8.50
2023-11-06T08:13:04.557Z,8.50
2023-11-06T08:15:32.140Z,8.60
2023-11-06T08:17:59.884Z,8.60
2023-11-06T08:20:28.663Z,8.60
2023-11-06T08:22:57.118Z,8.60
2023-11-06T08:25:27.527Z,8.60
2023-11-06T08:27:55.734Z,8.70
2023-11-06T08:30:24.301Z,8.70
2023-11-06T08:32:52.125Z,8.70
2023-11-06T08:35:20.220Z,8.70
2023-11-06T08:37:48.084Z,8.70
2023-11-06T08:40:18.708Z,8.80
2023-11-06T08:42:46.536Z,8.80
2023-11-06T08:45:14.394Z,8.80
2023-11-06T08:47:42.084Z,8.80
2023-11-06T08:50:10.881Z,8.80
2023-11-06T08:52:38.526Z,9.00
2023-11-06T08:55:07.209Z,9.00
2023-11-06T08:57:34.753Z,9.10
2023-11-06T09:00:02.677Z,9.10
2023-11-06T09:02:31.730Z,9.20
2023-11-06T09:04:59.546Z,9.20
2023-11-06T09:07:28.626Z,9.20
2023-11-06T09:09:56.231Z,9.30
2023-11-06T09:12:23.784Z,9.40
2023-11-06T09:14:51.337Z,9.40
2023-11-06T09:17:19.136Z,9.50
2023-11-06T09:19:47.363Z,9.50
2023-11-06T09:22:15.412Z,9.50
2023-11-06T09:24:43.504Z,9.60
2023-11-06T09:27:11.290Z,9.70
2023-11-06T09:29:38.985Z,9.70
2023-11-06T09:32:09.051Z,9.80
2023-11-06T09:34:37.865Z,9.80
2023-11-06T09:37:05.908Z,9.80
2023-11-06T09:39:33.526Z,9.90
2023-11-06T09:42:01.118Z,9.90
2023-11-06T09:44:29.605Z,9.90
2023-11-06T09:46:57.689Z,10.00
2023-11-06T09:49:31.800Z,10.00
2023-11-06T09:52:04.397Z,10.10
2023-11-06T09:54:32.119Z,10.20
2023-11-06T09:57:00.564Z,10.20
2023-11-06T09:59:28.228Z,10.30
2023-11-06T10:01:56.147Z,10.40
2023-11-06T10:04:24.134Z,10.50
2023-11-06T10:06:52.849Z,10.70
2023-11-06T10:09:21.301Z,10.80
2023-11-06T10:11:48.987Z,10.80
2023-11-06T10:14:16.717Z,10.90
2023-11-06T10:16:44.679Z,10.90
2023-11-06T10:19:14.904Z,10.90
2023-11-06T10:21:43.519Z,11.00
2023-11-06T10:24:15.434Z,11.00
2023-11-06T10:26:43.894Z,11.10
2023-11-06T10:29:16.235Z,11.20
2023-11-06T10:31:48.866Z,11.20
2023-11-06T10:34:30.992Z,11.40
2023-11-06T10:37:12.378Z,11.60
2023-11-06T10:39:52.426Z,11.60
2023-11-06T10:42:24.101Z,11.50
2023-11-06T10:44:56.836Z,11.60
2023-11-06T10:47:50.193Z,11.60
2023-11-06T10:50:22.689Z,11.60
2023-11-06T10:52:55.767Z,11.70
2023-11-06T10:55:31.396Z,11.80
2023-11-06T10:58:02.003Z,11.80
2023-11-06T11:00:32.754Z,11.90
2023-11-06T11:03:02.773Z,11.80
2023-11-06T11:05:36.006Z,11.90
2023-11-06T11:08:05.800Z,12.00
2023-11-06T11:10:33.535Z,12.10
2023-11-06T11:13:04.117Z,12.20
2023-11-06T11:15:34.181Z,12.20
2023-11-06T11:18:07.043Z,12.20
2023-11-06T11:20:51.275Z,12.20
2023-11-06T11:23:35.000Z,12.30
2023-11-06T11:26:03.677Z,12.30
2023-11-06T11:28:55.049Z,12.40
2023-11-06T11:31:44.679Z,12.40
2023-11-06T11:34:41.695Z,12.50
2023-11-06T11:37:27.895Z,12.40
2023-11-06T11:40:03.681Z,12.50
2023-11-06T11:42:31.499Z,12.50
2023-11-06T11:45:09.425Z,12.60
2023-11-06T11:47:49.307Z,12.60
2023-11-06T11:50:50.665Z,12.70
2023-11-06T11:53:35.599Z,12.70
2023-11-06T11:56:06.877Z,12.80
2023-11-06T11:58:44.627Z,12.90
2023-11-06T12:01:12.298Z,13.10
2023-11-06T12:03:39.935Z,13.20
2023-11-06T12:06:07.861Z,13.50
2023-11-06T12:08:37.989Z,13.60
2023-11-06T12:11:09.898Z,13.90
2023-11-06T12:13:37.683Z,14.00
2023-11-06T12:16:09.317Z,14.00
2023-11-06T12:18:43.814Z,14.30
2023-11-06T12:21:15.542Z,14.30
2023-11-06T12:23:43.209Z,14.20
2023-11-06T12:26:11.887Z,14.10
2023-11-06T12:28:44.652Z,14.10
2023-11-06T12:31:13.290Z,14.30
2023-11-06T12:33:41.166Z,14.80
2023-11-06T12:36:30.518Z,15.30
2023-11-06T12:39:00.474Z,15.40
2023-11-06T12:41:41.126Z,15.30
2023-11-06T12:44:09.823Z,15.10
2023-11-06T12:47:01.062Z,14.90
2023-11-06T12:49:49.733Z,14.80
2023-11-06T12:52:19.174Z,14.80
2023-11-06T12:54:50.906Z,15.10
2023-11-06T12:57:22.705Z,15.30
2023-11-06T12:59:50.328Z,15.20
2023-11-06T13:02:17.946Z,15.20
2023-11-06T13:04:45.584Z,14.90
2023-11-06T13:07:13.556Z,14.90
2023-11-06T13:09:41.615Z,14.70
2023-11-06T13:12:09.438Z,14.80
2023-11-06T13:14:37.130Z,14.80
2023-11-06T13:17:08.767Z,14.80
2023-11-06T13:19:37.100Z,15.00
2023-11-06T13:22:05.313Z,15.20
2023-11-06T13:24:32.965Z,15.30
2023-11-06T13:27:01.362Z,15.20
2023-11-06T13:29:29.194Z,15.20
2023-11-06T13:31:56.825Z,15.00
2023-11-06T13:34:26.093Z,14.60
2023-11-06T13:36:57.608Z,14.10
2023-11-06T13:39:26.423Z,13.90
2023-11-06T13:41:56.220Z,13.80
2023-11-06T13:44:25.478Z,13.70
2023-11-06T13:46:54.005Z,13.60
2023-11-06T13:49:23.115Z,13.60
2023-11-06T13:51:50.838Z,13.50
2023-11-06T13:54:36.228Z,13.40
2023-11-06T13:57:04.034Z,13.40
2023-11-06T13:59:31.805Z,13.30
2023-11-06T14:02:02.515Z,13.20
2023-11-06T14:04:31.965Z,13.20
2023-11-06T14:07:00.158Z,13.20
2023-11-06T14:09:37.130Z,13.20
2023-11-06T14:12:06.249Z,13.20
2023-11-06T14:14:34.218Z,13.20
2023-11-06T14:17:01.986Z,13.10
2023-11-06T14:19:30.737Z,13.10
2023-11-06T14:21:58.397Z,13.10
2023-11-06T14:24:26.055Z,13.00
2023-11-06T14:26:53.762Z,13.00
2023-11-06T14:29:21.884Z,13.00
2023-11-06T14:31:50.983Z,13.00
2023-11-06T14:34:18.598Z,13.00
2023-11-06T14:36:46.564Z,13.00
2023-11-06T14:39:16.012Z,13.00
2023-11-06T14:41:44.219Z,13.10
2023-11-06T14:44:15.057Z,13.20
2023-11-06T14:46:42.818Z,13.20
2023-11-06T14:49:12.602Z,13.10
2023-11-06T14:51:40.244Z,13.10
2023-11-06T14:54:08.088Z,13.00
2023-11-06T14:56:35.834Z,13.00
2023-11-06T14:59:03.493Z,13.00
2023-11-06T15:01:33.231Z,12.90
2023-11-06T15:04:01.008Z,12.90
2023-11-06T15:06:29.166Z,12.90
2023-11-06T15:08:56.754Z,12.90
2023-11-06T15:11:32.510Z,12.80
2023-11-06T15:14:02.054Z,12.80
2023-11-06T15:16:33.463Z,12.70
2023-11-06T15:19:01.070Z,12.70
2023-11-06T15:21:29.033Z,12.70
2023-11-06T15:23:57.928Z,12.70
2023-11-06T15:26:26.658Z,12.70
2023-11-06T15:28:54.181Z,12.70
2023-11-06T15:31:21.788Z,12.60
2023-11-06T15:33:49.481Z,12.60
2023-11-06T15:36:18.371Z,12.40
2023-11-06T15:38:46.011Z,12.40
2023-11-06T15:41:13.629Z,12.30
2023-11-06T15:43:43.371Z,12.30
2023-11-06T15:46:20.563Z,12.30
2023-11-06T15:48:56.103Z,12.20
2023-11-06T15:51:23.780Z,12.20
2023-11-06T15:53:55.532Z,12.20
2023-11-06T15:56:23.105Z,12.20
2023-11-06T15:58:50.644Z,12.20
2023-11-06T16:01:21.925Z,12.20
2023-11-06T16:03:49.557Z,12.20
2023-11-06T16:06:17.359Z,12.10
2023-11-06T16:08:45.952Z,12.10
2023-11-06T16:11:19.019Z,12.20
2023-11-06T16:13:49.769Z,12.20
2023-11-06T16:16:17.349Z,12.10
2023-11-06T16:18:45.153Z,12.20
2023-11-06T16:21:12.860Z,12.20
2023-11-06T16:23:43.168Z,12.10
2023-11-06T16:26:11.162Z,12.00
2023-11-06T16:28:40.008Z,12.00
2023-11-06T16:31:07.786Z,12.00
2023-11-06T16:33:35.620Z,12.00
2023-11-06T16:36:04.121Z,11.90
2023-11-06T16:38:31.796Z,11.90
2023-11-06T16:41:00.132Z,11.90
2023-11-06T16:43:27.860Z,11.90
2023-11-06T16:45:55.473Z,11.90
2023-11-06T16:48:23.742Z,11.90
2023-11-06T16:50:51.947Z,11.90
2023-11-06T16:53:19.778Z,11.90
2023-11-06T16:55:48.334Z,11.80
2023-11-06T16:58:15.904Z,11.80
2023-11-06T17:00:45.014Z,11.80
2023-11-06T17:03:12.755Z,11.70
2023-11-06T17:05:40.436Z,11.70
2023-11-06T17:08:09.489Z,11.80
2023-11-06T17:10:37.159Z,11.70
2023-11-06T17:13:05.429Z,11.60
2023-11-06T17:15:35.764Z,11.60
2023-11-06T17:18:04.966Z,11.60
2023-11-06T17:20:33.455Z,11.50
2023-11-06T17:23:01.163Z,11.50
2023-11-06T17:25:28.956Z,11.50
2023-11-06T17:27:57.754Z,11.50
2023-11-06T17:30:26.233Z,11.40
2023-11-06T17:32:54.606Z,11.40
2023-11-06T17:35:22.575Z,11.40
2023-11-06T17:37:50.201Z,11.40
2023-11-06T17:40:17.748Z,11.30
2023-11-06T17:42:45.445Z,11.30
2023-11-06T17:45:13.636Z,11.20
2023-11-06T17:47:41.713Z,11.20
2023-11-06T17:50:09.708Z,11.20
2023-11-06T17:52:37.348Z,11.20
2023-11-06T17:55:05.772Z,11.10
2023-11-06T17:57:33.528Z,11.10
2023-11-06T18:00:01.182Z,11.10
2023-11-06T18:02:29.443Z,11.10
2023-11-06T18:04:57.090Z,11.10
2023-11-06T18:07:24.657Z,11.10
2023-11-06T18:09:52.333Z,11.10
2023-11-06T18:12:19.949Z,11.00
2023-11-06T18:14:49.004Z,11.00
2023-11-06T18:17:16.711Z,11.00
2023-11-06T18:19:44.530Z,11.00
2023-11-06T18:22:13.008Z,10.90
2023-11-06T18:24:40.634Z,11.00
2023-11-06T18:27:08.294Z,10.90
2023-11-06T18:29:35.869Z,10.90
2023-11-06T18:32:03.504Z,10.90
2023-11-06T18:34:31.091Z,10.90
2023-11-06T18:36:58.694Z,10.80
2023-11-06T18:39:26.220Z,10.90
2023-11-06T18:41:55.432Z,10.80
2023-11-06T18:44:23.795Z,10.90
2023-11-06T18:46:51.503Z,10.80
2023-11-06T18:49:19.236Z,10.80
2023-11-06T18:51:46.719Z,10.70
2023-11-06T18:54:14.301Z,10.70
2023-11-06T18:56:42.482Z,10.70
2023-11-06T18:59:10.866Z,10.60
2023-11-06T19:01:39.279Z,10.60
2023-11-06T19:04:06.904Z,10.60
2023-11-06T19:06:35.902Z,10.50
2023-11-06T19:09:03.652Z,10.50
2023-11-06T19:11:31.232Z,10.60
2023-11-06T19:13:58.837Z,10.50
2023-11-06T19:16:27.657Z,10.50
2023-11-06T19:18:55.606Z,10.40
2023-11-06T19:21:25.171Z,10.40
2023-11-06T19:23:52.808Z,10.40
2023-11-06T19:26:20.581Z,10.40
2023-11-06T19:28:49.965Z,10.50
2023-11-06T19:31:19.839Z,10.50
2023-11-06T19:33:48.545Z,10.30
2023-11-06T19:36:16.220Z,10.30
2023-11-06T19:38:43.872Z,10.20
2023-11-06T19:41:12.142Z,10.20
2023-11-06T19:43:40.879Z,10.10
2023-11-06T19:46:09.031Z,10.10
2023-11-06T19:48:38.953Z,10.10
2023-11-06T19:51:06.707Z,10.20
2023-11-06T19:53:35.548Z,10.20
2023-11-06T19:56:05.202Z,10.20
2023-11-06T19:58:33.004Z,10.10
2023-11-06T20:01:01.019Z,10.10
2023-11-06T20:03:28.795Z,10.10
2023-11-06T20:05:56.455Z,10.10
2023-11-06T20:08:24.537Z,10.00
2023-11-06T20:10:52.331Z,10.00
2023-11-06T20:13:19.866Z,10.00
2023-11-06T20:15:47.879Z,9.90
2023-11-06T20:18:15.602Z,9.90
2023-11-06T20:20:43.408Z,9.90
2023-11-06T20:23:10.960Z,9.90
2023-11-06T20:25:40.564Z,9.90
2023-11-06T20:28:08.524Z,10.00
2023-11-06T20:30:36.334Z,10.00
2023-11-06T20:33:04.167Z,10.00
2023-11-06T20:35:31.769Z,9.90
2023-11-06T20:37:59.681Z,9.90
2023-11-06T20:40:27.320Z,9.80
2023-11-06T20:42:55.023Z,9.80
2023-11-06T20:45:22.994Z,9.80
2023-11-06T20:47:51.921Z,9.80
2023-11-06T20:50:19.848Z,9.70
2023-11-06T20:52:48.404Z,9.70
2023-11-06T20:55:17.391Z,9.70
2023-11-06T20:57:45.014Z,9.60
2023-11-06T21:00:13.298Z,9.60
2023-11-06T21:02:42.330Z,9.60
2023-11-06T21:05:10.573Z,9.60
2023-11-06T21:07:38.215Z,9.60
2023-11-06T21:10:06.250Z,9.60
2023-11-06T21:12:33.974Z,9.60
2023-11-06T21:15:01.686Z,9.60
2023-11-06T21:17:29.343Z,9.60
2023-11-06T21:19:56.984Z,9.50
2023-11-06T21:22:24.620Z,9.50
2023-11-06T21:24:54.486Z,9.40
2023-11-06T21:27:22.070Z,9.40
2023-11-06T21:29:49.589Z,9.50
2023-11-06T21:32:17.146Z,9.50
2023-11-06T21:34:44.733Z,9.50
2023-11-06T21:37:13.673Z,9.50
2023-11-06T21:39:41.629Z,9.40
2023-11-06T21:42:10.026Z,9.40
2023-11-06T21:44:37.786Z,9.40
2023-11-06T21:47:05.905Z,9.40
2023-11-06T21:49:33.967Z,9.30
2023-11-06T21:52:02.295Z,9.30
2023-11-06T21:54:31.683Z,9.30
2023-11-06T21:56:59.353Z,9.30
2023-11-06T21:59:27.307Z,9.30
2023-11-06T22:01:55.661Z,9.30
2023-11-06T22:04:23.418Z,9.30
2023-11-06T22:06:51.037Z,9.30
2023-11-06T22:09:18.719Z,9.30
2023-11-06T22:11:46.415Z,9.20
2023-11-06T22:14:14.219Z,9.20
2023-11-06T22:16:41.882Z,9.20
2023-11-06T22:19:09.511Z,9.10
2023-11-06T22:21:37.870Z,9.10
2023-11-06T22:24:05.801Z,9.10
2023-11-06T22:26:33.768Z,9.10
2023-11-06T22:29:02.332Z,9.10
2023-11-06T22:31:29.962Z,9.20
2023-11-06T22:33:57.646Z,9.20
2023-11-06T22:36:25.244Z,9.10
2023-11-06T22:38:52.847Z,9.20
2023-11-06T22:41:20.571Z,9.20
2023-11-06T22:43:48.276Z,9.10
2023-11-06T22:46:15.875Z,9.10
2023-11-06T22:48:43.575Z,9.10
2023-11-06T22:51:13.289Z,9.00
2023-11-06T22:53:40.929Z,9.00
2023-11-06T22:56:08.806Z,9.00
2023-11-06T22:58:36.334Z,8.90
2023-11-06T23:01:04.026Z,8.90
2023-11-06T23:03:33.747Z,8.90
2023-11-06T23:06:01.427Z,8.90
2023-11-06T23:08:29.713Z,8.80
2023-11-06T23:11:00.015Z,8.80
2023-11-06T23:13:27.579Z,8.80
2023-11-06T23:15:55.109Z,8.80
2023-11-06T23:18:22.990Z,8.80
2023-11-06T23:20:50.605Z,8.70
2023-11-06T23:23:18.118Z,8.80
2023-11-06T23:25:45.666Z,8.80
2023-11-06T23:28:14.411Z,8.70
2023-11-06T23:30:42.063Z,8.70
2023-11-06T23:33:10.274Z,8.70
2023-11-06T23:35:38.263Z,8.60
2023-11-06T23:38:05.831Z,8.60
2023-11-06T23:40:34.556Z,8.60
2023-11-06T23:43:02.896Z,8.60
2023-11-06T23:45:30.522Z,8.60
2023-11-06T23:47:58.447Z,8.60
2023-11-06T23:50:26.443Z,8.60
2023-11-06T23:52:54.053Z,8.50
2023-11-06T23:55:21.828Z,8.60
2023-11-06T23:57:49.447Z,8.50
